Startpagina
METAR-TAF:

METAR-TAF

Vliegvelden :

Gobabis, Namibië

breedte: 22-30-20S, lengte: 18-58-30E, hoogte: 1468 m

Actueel weer

Dit bericht is 11 uur en het 37 minuten geleden gemaakt, om 07:00 UTC
Wind 1 kt uit het zuidzuidoosten
Temperatuur 21°C
Vochtigheid 88%
Druk 1023 hPa

METAR: FYGB 180700Z AUTO 15001KT //// // ////// 21/19 Q1023

Tijdstip: 20:37 (18:37 UTC)


TAF: ontbreekt

Waarnemingen en weersverwachtingen van meer dan 4000 vliegvelden (METAR en TAF).

De beschikbare stations zijn de gele en rode punten op de kaart.

Ga met uw muis naar het station om de naam te zien.

Klik dan om waarnemingen en weersverwachtingen te zien.

kaart wijzigen: klik op de groene knoppen met een zwart kruis om in te zoomen, op de groene knop met een streepje om uit te zoomen of op de groene pijlen voor aangrenzende kaarten.


METAR-TAF: